createdAt,value
2022-12-01T00:01:19.402Z,5.79
2022-12-01T00:03:47.246Z,5.66
2022-12-01T00:06:17.005Z,5.62
2022-12-01T00:09:06.538Z,5.81
2022-12-01T00:11:35.820Z,5.70
2022-12-01T00:14:04.182Z,5.95
2022-12-01T00:16:32.668Z,5.43
2022-12-01T00:19:00.566Z,5.40
2022-12-01T00:21:28.674Z,5.32
2022-12-01T00:23:58.473Z,5.31
2022-12-01T00:26:27.328Z,5.23
2022-12-01T00:28:58.016Z,5.27
2022-12-01T00:31:26.573Z,4.96
2022-12-01T00:33:54.632Z,5.26
2022-12-01T00:36:23.481Z,5.32
2022-12-01T00:38:53.379Z,4.93
2022-12-01T00:41:21.111Z,5.29
2022-12-01T00:43:49.134Z,5.27
2022-12-01T00:46:18.608Z,5.51
2022-12-01T00:48:46.349Z,5.13
2022-12-01T00:51:14.108Z,4.80
2022-12-01T00:53:41.862Z,4.61
2022-12-01T00:56:09.602Z,4.90
2022-12-01T00:58:37.323Z,4.64
2022-12-01T01:01:05.288Z,4.96
2022-12-01T01:03:35.386Z,4.24
2022-12-01T01:06:07.121Z,4.25
2022-12-01T01:08:36.118Z,4.59
2022-12-01T01:11:05.034Z,4.33
2022-12-01T01:13:33.010Z,4.68
2022-12-01T01:16:01.854Z,4.45
2022-12-01T01:18:30.101Z,4.45
2022-12-01T01:21:00.976Z,4.22
2022-12-01T01:23:28.705Z,4.04
2022-12-01T01:26:03.246Z,4.12
2022-12-01T01:28:31.472Z,4.04
2022-12-01T01:30:59.697Z,4.42
2022-12-01T01:33:27.519Z,4.37
2022-12-01T01:35:55.228Z,4.48
2022-12-01T01:38:24.306Z,4.35
2022-12-01T01:40:52.023Z,4.47
2022-12-01T01:43:40.379Z,4.63
2022-12-01T01:46:11.210Z,4.42
2022-12-01T01:48:41.630Z,4.61
2022-12-01T01:51:10.508Z,4.77
2022-12-01T01:53:39.839Z,4.58
2022-12-01T01:56:09.785Z,4.40
2022-12-01T01:58:39.207Z,4.58
2022-12-01T02:01:07.828Z,4.64
2022-12-01T02:03:38.225Z,4.72
2022-12-01T02:06:07.425Z,4.57
2022-12-01T02:08:38.177Z,4.66
2022-12-01T02:11:34.667Z,4.92
2022-12-01T02:14:09.904Z,4.51
2022-12-01T02:16:45.646Z,4.70
2022-12-01T02:19:42.136Z,3.98
2022-12-01T02:22:20.111Z,4.61
2022-12-01T02:25:13.869Z,4.43
2022-12-01T02:28:04.034Z,4.21
2022-12-01T02:30:41.072Z,4.40
2022-12-01T02:33:17.165Z,4.45
2022-12-01T02:35:49.581Z,4.24
2022-12-01T02:38:26.354Z,4.31
2022-12-01T02:41:02.493Z,4.25
2022-12-01T02:43:35.340Z,3.88
2022-12-01T02:46:10.869Z,4.24
2022-12-01T02:48:42.926Z,4.07
2022-12-01T02:51:14.740Z,4.14
2022-12-01T02:53:42.560Z,4.23
2022-12-01T02:56:13.544Z,3.98
2022-12-01T02:58:41.603Z,4.28
2022-12-01T03:01:25.381Z,4.16
2022-12-01T03:04:02.685Z,4.29
2022-12-01T03:06:41.865Z,4.25
2022-12-01T03:09:19.646Z,4.15
2022-12-01T03:11:56.746Z,4.07
2022-12-01T03:14:34.350Z,3.98
2022-12-01T03:17:09.073Z,4.02
2022-12-01T03:19:42.719Z,4.29
2022-12-01T03:22:14.694Z,4.36
2022-12-01T03:24:45.191Z,4.09
2022-12-01T03:27:16.177Z,3.96
2022-12-01T03:29:47.815Z,4.09
2022-12-01T03:32:21.128Z,4.35
2022-12-01T03:34:52.729Z,4.25
2022-12-01T03:37:25.287Z,4.24
2022-12-01T03:40:00.482Z,4.15
2022-12-01T03:42:34.393Z,4.45
2022-12-01T03:45:08.525Z,4.25
2022-12-01T03:47:39.532Z,3.94
2022-12-01T03:50:13.923Z,3.82
2022-12-01T03:52:49.527Z,3.67
2022-12-01T03:55:22.091Z,3.80
2022-12-01T03:57:55.270Z,3.42
2022-12-01T04:00:23.800Z,4.02
2022-12-01T04:02:57.552Z,3.85
2022-12-01T04:05:26.008Z,3.92
2022-12-01T04:07:54.382Z,3.56
2022-12-01T04:10:22.417Z,3.98
2022-12-01T04:12:49.565Z,4.25
2022-12-01T04:15:17.869Z,3.74
2022-12-01T04:17:46.034Z,3.60
2022-12-01T04:20:16.701Z,4.01
2022-12-01T04:22:44.603Z,3.70
2022-12-01T04:25:12.876Z,3.97
2022-12-01T04:27:40.868Z,4.00
2022-12-01T04:30:09.694Z,4.09
2022-12-01T04:32:39.801Z,3.89
2022-12-01T04:35:08.610Z,3.98
2022-12-01T04:37:38.116Z,3.67
2022-12-01T04:40:07.347Z,3.79
2022-12-01T04:42:35.382Z,3.83
2022-12-01T04:45:03.169Z,3.94
2022-12-01T04:47:30.882Z,3.88
2022-12-01T04:49:58.599Z,3.87
2022-12-01T04:52:29.463Z,4.04
2022-12-01T04:55:03.354Z,4.09
2022-12-01T04:57:31.071Z,3.85
2022-12-01T04:59:58.768Z,3.95
2022-12-01T05:02:26.661Z,4.25
2022-12-01T05:04:54.433Z,4.31
2022-12-01T05:07:22.209Z,4.15
2022-12-01T05:09:50.347Z,4.22
2022-12-01T05:12:19.901Z,4.17
2022-12-01T05:14:47.653Z,4.28
2022-12-01T05:17:15.382Z,3.86
2022-12-01T05:20:09.100Z,3.56
2022-12-01T05:23:04.298Z,3.70
2022-12-01T05:25:24.527Z,3.65
2022-12-01T05:27:53.653Z,3.86
2022-12-01T05:30:27.012Z,3.76
2022-12-01T05:32:56.464Z,4.02
2022-12-01T05:35:24.205Z,3.85
2022-12-01T05:37:51.908Z,3.96
2022-12-01T05:40:19.880Z,3.93
2022-12-01T05:42:47.613Z,3.56
2022-12-01T05:45:16.993Z,4.01
2022-12-01T05:47:44.721Z,3.61
2022-12-01T05:50:12.596Z,3.89
2022-12-01T05:52:40.351Z,3.72
2022-12-01T05:55:08.987Z,3.60
2022-12-01T05:57:36.707Z,3.37
2022-12-01T06:00:05.934Z,3.54
2022-12-01T06:02:35.075Z,3.35
2022-12-01T06:05:02.798Z,3.54
2022-12-01T06:07:30.777Z,3.32
2022-12-01T06:09:58.551Z,3.35
2022-12-01T06:12:26.282Z,3.66
2022-12-01T06:14:54.050Z,3.65
2022-12-01T06:17:21.781Z,3.75
2022-12-01T06:19:51.194Z,3.49
2022-12-01T06:22:19.053Z,3.69
2022-12-01T06:24:46.771Z,3.50
2022-12-01T06:27:14.626Z,3.70
2022-12-01T06:29:44.862Z,3.71
2022-12-01T06:32:12.582Z,3.47
2022-12-01T06:34:40.328Z,3.59
2022-12-01T06:37:09.397Z,3.74
2022-12-01T06:39:37.130Z,3.80
2022-12-01T06:42:05.074Z,3.76
2022-12-01T06:44:32.807Z,3.72
2022-12-01T06:47:00.545Z,3.68
2022-12-01T06:49:28.276Z,4.10
2022-12-01T06:51:55.992Z,3.43
2022-12-01T06:54:25.074Z,3.75
2022-12-01T06:56:52.836Z,3.76
2022-12-01T06:59:20.930Z,3.89
2022-12-01T07:01:49.150Z,3.73
2022-12-01T07:04:17.005Z,3.89
2022-12-01T07:06:44.764Z,4.08
2022-12-01T07:09:12.534Z,3.62
2022-12-01T07:11:41.602Z,3.56
2022-12-01T07:14:17.967Z,3.33
2022-12-01T07:16:45.724Z,3.41
2022-12-01T07:19:13.485Z,3.42
2022-12-01T07:21:41.416Z,3.49
2022-12-01T07:24:09.471Z,3.64
2022-12-01T07:26:37.210Z,3.53
2022-12-01T07:29:07.659Z,3.69
2022-12-01T07:31:35.406Z,3.80
2022-12-01T07:34:03.179Z,3.84
2022-12-01T07:36:30.917Z,4.05
2022-12-01T07:39:07.546Z,4.00
2022-12-01T07:41:35.926Z,3.78
2022-12-01T07:44:03.875Z,3.79
2022-12-01T07:46:33.048Z,3.86
2022-12-01T07:49:00.786Z,3.95
2022-12-01T07:51:29.005Z,4.05
2022-12-01T07:53:58.663Z,3.99
2022-12-01T07:56:28.706Z,3.49
2022-12-01T07:58:56.694Z,3.93
2022-12-01T08:01:28.242Z,3.75
2022-12-01T08:03:59.217Z,3.86
2022-12-01T08:06:27.669Z,4.19
2022-12-01T08:08:55.929Z,3.89
2022-12-01T08:11:25.498Z,4.05
2022-12-01T08:13:54.188Z,4.09
2022-12-01T08:16:24.353Z,4.07
2022-12-01T08:18:52.700Z,4.01
2022-12-01T08:21:23.467Z,4.07
2022-12-01T08:23:54.650Z,4.12
2022-12-01T08:26:23.679Z,3.76
2022-12-01T08:28:58.894Z,4.01
2022-12-01T08:31:28.808Z,4.24
2022-12-01T08:33:56.947Z,4.33
2022-12-01T08:36:26.644Z,4.08
2022-12-01T08:38:56.238Z,3.97
2022-12-01T08:41:25.253Z,3.76
2022-12-01T08:43:58.343Z,3.82
2022-12-01T08:46:27.786Z,3.91
2022-12-01T08:48:57.431Z,3.81
2022-12-01T08:51:27.405Z,3.79
2022-12-01T08:53:57.424Z,3.72
2022-12-01T08:56:28.412Z,3.77
2022-12-01T08:58:56.678Z,4.11
2022-12-01T09:01:25.883Z,4.31
2022-12-01T09:04:05.899Z,4.30
2022-12-01T09:06:39.462Z,4.14
2022-12-01T09:09:07.797Z,4.06
2022-12-01T09:11:35.576Z,4.29
2022-12-01T09:14:03.369Z,3.79
2022-12-01T09:16:31.444Z,3.96
2022-12-01T09:18:59.266Z,3.76
2022-12-01T09:21:30.385Z,3.82
2022-12-01T09:23:59.524Z,3.68
2022-12-01T09:26:28.042Z,4.14
2022-12-01T09:28:57.857Z,3.61
2022-12-01T09:31:25.837Z,3.09
2022-12-01T09:33:56.921Z,3.72
2022-12-01T09:36:24.846Z,4.64
2022-12-01T09:38:52.651Z,3.89
2022-12-01T09:41:25.494Z,3.63
2022-12-01T09:43:59.694Z,3.62
2022-12-01T09:46:33.255Z,4.07
2022-12-01T09:49:03.795Z,3.36
2022-12-01T09:51:34.842Z,3.49
2022-12-01T09:54:03.351Z,3.68
2022-12-01T09:56:37.278Z,3.43
2022-12-01T09:59:08.670Z,3.14
2022-12-01T10:01:39.651Z,3.38
2022-12-01T10:04:13.004Z,3.34
2022-12-01T10:06:47.476Z,3.24
2022-12-01T10:09:24.454Z,3.72
2022-12-01T10:12:00.298Z,3.79
2022-12-01T10:14:31.107Z,3.53
2022-12-01T10:17:05.433Z,3.76
2022-12-01T10:19:40.756Z,3.18
2022-12-01T10:22:23.728Z,3.67
2022-12-01T10:24:57.174Z,3.78
2022-12-01T10:27:44.646Z,3.58
2022-12-01T10:30:16.854Z,3.61
2022-12-01T10:32:52.472Z,4.30
2022-12-01T10:35:22.584Z,4.39
2022-12-01T10:37:55.614Z,4.05
2022-12-01T10:40:23.852Z,4.10
2022-12-01T10:42:53.300Z,4.41
2022-12-01T10:45:23.955Z,4.10
2022-12-01T10:48:15.386Z,4.24
2022-12-01T10:50:44.338Z,3.68
2022-12-01T10:53:28.544Z,3.99
2022-12-01T10:56:07.259Z,3.86
2022-12-01T10:58:44.489Z,3.72
2022-12-01T11:01:19.146Z,4.18
2022-12-01T11:03:52.712Z,4.21
2022-12-01T11:06:26.621Z,3.40
2022-12-01T11:08:57.910Z,3.46
2022-12-01T11:11:35.169Z,3.88
2022-12-01T11:14:06.887Z,3.64
2022-12-01T11:16:41.605Z,3.51
2022-12-01T11:19:23.545Z,3.91
2022-12-01T11:21:56.467Z,4.18
2022-12-01T11:24:35.724Z,4.06
2022-12-01T11:27:03.495Z,4.16
2022-12-01T11:29:36.854Z,4.79
2022-12-01T11:32:17.165Z,4.33
2022-12-01T11:34:50.909Z,4.30
2022-12-01T11:37:21.309Z,4.34
2022-12-01T11:39:50.378Z,4.55
2022-12-01T11:42:24.213Z,4.26
2022-12-01T11:44:56.618Z,4.33
2022-12-01T11:47:26.519Z,4.31
2022-12-01T11:49:56.637Z,3.98
2022-12-01T11:52:28.293Z,3.59
2022-12-01T11:54:58.024Z,3.70
2022-12-01T11:57:34.228Z,4.19
2022-12-01T12:00:14.195Z,4.20
2022-12-01T12:02:52.359Z,4.28
2022-12-01T12:05:45.318Z,4.40
2022-12-01T12:08:24.077Z,4.63
2022-12-01T12:11:01.938Z,4.53
2022-12-01T12:13:46.053Z,3.88
2022-12-01T12:16:21.570Z,4.22
2022-12-01T12:19:04.393Z,4.31
2022-12-01T12:21:35.417Z,4.35
2022-12-01T12:24:25.282Z,4.44
2022-12-01T12:27:01.459Z,4.38
2022-12-01T12:29:42.556Z,4.25
2022-12-01T12:32:38.009Z,4.55
2022-12-01T12:35:18.997Z,4.27
2022-12-01T12:37:52.527Z,4.12
2022-12-01T12:40:37.534Z,4.33
2022-12-01T12:43:21.003Z,4.73
2022-12-01T12:46:00.966Z,4.37
2022-12-01T12:49:18.221Z,4.35
2022-12-01T12:51:43.612Z,4.55
2022-12-01T12:54:21.968Z,4.45
2022-12-01T12:56:55.133Z,4.54
2022-12-01T12:59:29.211Z,4.53
2022-12-01T13:02:02.292Z,4.66
2022-12-01T13:04:40.133Z,4.34
2022-12-01T13:07:11.834Z,4.63
2022-12-01T13:09:43.411Z,4.43
2022-12-01T13:12:15.950Z,4.30
2022-12-01T13:14:47.452Z,4.58
2022-12-01T13:17:21.189Z,4.69
2022-12-01T13:19:50.675Z,4.64
2022-12-01T13:22:22.881Z,4.77
2022-12-01T13:24:50.900Z,4.58
2022-12-01T13:27:22.323Z,4.90
2022-12-01T13:29:51.725Z,4.17
2022-12-01T13:32:31.722Z,4.28
2022-12-01T13:35:02.689Z,4.16
2022-12-01T13:37:32.916Z,4.26
2022-12-01T13:40:10.852Z,4.25
2022-12-01T13:42:39.894Z,4.09
2022-12-01T13:45:18.395Z,4.13
2022-12-01T13:47:51.865Z,3.95
2022-12-01T13:50:56.164Z,4.35
2022-12-01T13:53:33.003Z,4.22
2022-12-01T13:56:26.219Z,4.40
2022-12-01T13:58:55.341Z,4.69
2022-12-01T14:01:45.854Z,4.51
2022-12-01T14:04:29.185Z,4.11
2022-12-01T14:07:20.562Z,4.54
2022-12-01T14:09:50.388Z,4.50
2022-12-01T14:12:22.038Z,4.27
2022-12-01T14:14:55.778Z,4.30
2022-12-01T14:17:30.486Z,3.87
2022-12-01T14:20:08.416Z,4.36
2022-12-01T14:22:40.132Z,4.35
2022-12-01T14:25:24.341Z,4.67
2022-12-01T14:27:53.836Z,4.42
2022-12-01T14:30:58.811Z,4.33
2022-12-01T14:33:47.491Z,4.65
2022-12-01T14:36:23.783Z,4.46
2022-12-01T14:39:00.059Z,3.91
2022-12-01T14:41:30.740Z,3.87
2022-12-01T14:44:04.602Z,4.35
2022-12-01T14:46:40.511Z,3.94
2022-12-01T14:49:14.090Z,4.24
2022-12-01T14:51:47.016Z,4.17
2022-12-01T14:54:24.801Z,3.87
2022-12-01T14:56:55.902Z,4.20
2022-12-01T14:59:26.638Z,3.95
2022-12-01T15:02:08.885Z,4.48
2022-12-01T15:04:37.578Z,4.09
2022-12-01T15:07:05.334Z,4.20
2022-12-01T15:09:35.495Z,4.07
2022-12-01T15:12:07.350Z,4.28
2022-12-01T15:14:37.566Z,3.91
2022-12-01T15:17:06.938Z,4.26
2022-12-01T15:19:37.698Z,4.51
2022-12-01T15:22:12.532Z,4.37
2022-12-01T15:24:42.698Z,3.97
2022-12-01T15:27:26.012Z,4.40
2022-12-01T15:29:57.113Z,4.32
2022-12-01T15:32:26.004Z,4.01
2022-12-01T15:34:55.751Z,4.59
2022-12-01T15:37:27.762Z,4.21
2022-12-01T15:43:02.641Z,4.40
2022-12-01T15:45:30.459Z,4.28
2022-12-01T15:47:59.555Z,4.80
2022-12-01T15:50:31.155Z,4.21
2022-12-01T15:53:00.293Z,4.31
2022-12-01T15:55:32.465Z,4.03
2022-12-01T15:58:01.095Z,3.92
2022-12-01T16:00:29.146Z,4.01
2022-12-01T16:03:00.161Z,4.42
2022-12-01T16:05:31.491Z,4.53
2022-12-01T16:08:14.216Z,4.32
2022-12-01T16:10:43.485Z,4.29
2022-12-01T16:13:45.819Z,3.76
2022-12-01T16:16:39.070Z,3.78
2022-12-01T16:19:26.332Z,4.34
2022-12-01T16:21:57.634Z,4.12
2022-12-01T16:24:29.833Z,3.88
2022-12-01T16:27:02.372Z,3.94
2022-12-01T16:29:32.613Z,3.43
2022-12-01T16:32:20.146Z,4.06
2022-12-01T16:34:48.958Z,3.88
2022-12-01T16:37:17.033Z,4.05
2022-12-01T16:39:44.945Z,4.05
2022-12-01T16:42:16.285Z,3.84
2022-12-01T16:44:44.770Z,4.06
2022-12-01T16:47:17.674Z,4.08
2022-12-01T16:49:45.483Z,4.17
2022-12-01T16:52:43.252Z,4.48
2022-12-01T16:55:00.956Z,4.31
2022-12-01T16:57:30.563Z,3.95
2022-12-01T16:59:58.246Z,4.52
2022-12-01T17:02:25.972Z,4.22
2022-12-01T17:04:53.802Z,4.74
2022-12-01T17:07:21.634Z,4.18
2022-12-01T17:09:49.388Z,4.07
2022-12-01T17:12:17.112Z,4.28
2022-12-01T17:14:46.218Z,4.08
2022-12-01T17:17:13.938Z,4.40
2022-12-01T17:19:41.674Z,4.39
2022-12-01T17:22:09.383Z,4.28
2022-12-01T17:24:37.148Z,4.48
2022-12-01T17:27:04.971Z,4.28
2022-12-01T17:29:32.928Z,4.27
2022-12-01T17:32:02.037Z,4.33
2022-12-01T17:34:29.793Z,4.44
2022-12-01T17:36:57.690Z,4.33
2022-12-01T17:39:25.375Z,4.63
2022-12-01T17:41:54.973Z,4.36
2022-12-01T17:44:22.698Z,4.05
2022-12-01T17:46:50.480Z,4.02
2022-12-01T17:49:19.677Z,4.33
2022-12-01T17:51:47.414Z,4.19
2022-12-01T17:54:15.223Z,4.33
2022-12-01T17:56:43.008Z,4.44
2022-12-01T17:59:10.860Z,4.27
2022-12-01T18:01:39.599Z,4.06
2022-12-01T18:04:07.615Z,4.27
2022-12-01T18:06:36.973Z,4.28
2022-12-01T18:09:04.914Z,4.20
2022-12-01T18:11:32.901Z,4.24
2022-12-01T18:14:01.965Z,4.16
2022-12-01T18:16:31.877Z,4.31
2022-12-01T18:19:01.113Z,4.11
2022-12-01T18:21:29.689Z,4.31
2022-12-01T18:24:01.077Z,4.14
2022-12-01T18:26:30.289Z,4.07
2022-12-01T18:29:00.584Z,4.20
2022-12-01T18:31:29.927Z,3.98
2022-12-01T18:34:02.620Z,4.48
2022-12-01T18:36:31.317Z,4.53
2022-12-01T18:39:01.634Z,4.10
2022-12-01T18:41:29.890Z,4.23
2022-12-01T18:43:57.704Z,3.82
2022-12-01T18:46:25.683Z,3.76
2022-12-01T18:49:00.395Z,3.87
2022-12-01T18:51:28.839Z,3.70
2022-12-01T18:53:57.304Z,3.95
2022-12-01T18:56:29.888Z,3.80
2022-12-01T18:58:58.731Z,3.80
2022-12-01T19:01:28.930Z,3.42
2022-12-01T19:03:57.838Z,3.55
2022-12-01T19:06:26.862Z,3.89
2022-12-01T19:08:55.454Z,4.01
2022-12-01T19:11:23.286Z,4.04
2022-12-01T19:13:52.375Z,3.61
2022-12-01T19:16:20.895Z,3.88
2022-12-01T19:18:48.800Z,3.91
2022-12-01T19:21:18.684Z,4.26
2022-12-01T19:23:47.185Z,4.22
2022-12-01T19:26:17.702Z,4.19
2022-12-01T19:28:46.393Z,4.28
2022-12-01T19:31:18.205Z,4.18
2022-12-01T19:33:46.105Z,4.11
2022-12-01T19:36:15.882Z,4.31
2022-12-01T19:38:44.636Z,4.38
2022-12-01T19:41:13.626Z,4.39
2022-12-01T19:43:42.179Z,4.46
2022-12-01T19:46:12.746Z,4.33
2022-12-01T19:48:42.289Z,4.34
2022-12-01T19:51:17.520Z,4.34
2022-12-01T19:53:45.292Z,4.34
2022-12-01T19:56:13.833Z,4.27
2022-12-01T19:58:41.931Z,4.36
2022-12-01T20:01:12.497Z,4.20
2022-12-01T20:03:42.837Z,4.44
2022-12-01T20:06:12.314Z,4.27
2022-12-01T20:08:40.723Z,4.48
2022-12-01T20:11:09.293Z,4.32
2022-12-01T20:13:38.758Z,4.42
2022-12-01T20:16:08.685Z,4.28
2022-12-01T20:18:37.225Z,4.24
2022-12-01T20:21:08.606Z,4.26
2022-12-01T20:23:37.314Z,4.25
2022-12-01T20:26:07.093Z,3.68
2022-12-01T20:28:36.099Z,3.89
2022-12-01T20:31:04.977Z,4.17
2022-12-01T20:33:32.767Z,4.49
2022-12-01T20:36:00.579Z,4.21
2022-12-01T20:38:29.711Z,4.41
2022-12-01T20:40:57.474Z,3.94
2022-12-01T20:43:25.165Z,4.43
2022-12-01T20:45:53.043Z,4.60
2022-12-01T20:48:20.869Z,4.59
2022-12-01T20:50:48.912Z,4.54
2022-12-01T20:53:17.073Z,4.59
2022-12-01T20:55:46.757Z,4.48
2022-12-01T20:58:14.610Z,4.71
2022-12-01T21:00:44.206Z,4.54
2022-12-01T21:03:12.972Z,4.95
2022-12-01T21:05:42.404Z,4.57
2022-12-01T21:08:13.059Z,4.48
2022-12-01T21:10:42.552Z,4.59
2022-12-01T21:13:36.779Z,4.58
2022-12-01T21:16:10.806Z,4.61
2022-12-01T21:18:50.454Z,4.47
2022-12-01T21:21:24.384Z,4.54
2022-12-01T21:24:03.699Z,4.44
2022-12-01T21:26:31.425Z,4.41
2022-12-01T21:29:01.943Z,4.41
2022-12-01T21:31:29.713Z,4.36
2022-12-01T21:33:57.545Z,4.52
2022-12-01T21:36:29.980Z,4.39
2022-12-01T21:39:09.443Z,4.34
2022-12-01T21:41:37.889Z,4.21
2022-12-01T21:44:14.844Z,4.56
2022-12-01T21:46:42.729Z,4.35
2022-12-01T21:49:14.384Z,4.35
2022-12-01T21:51:42.179Z,4.06
2022-12-01T21:54:14.888Z,4.28
2022-12-01T21:56:43.029Z,4.14
2022-12-01T21:59:19.099Z,4.48
2022-12-01T22:01:47.523Z,4.17
2022-12-01T22:04:21.983Z,4.36
2022-12-01T22:06:50.900Z,4.36
2022-12-01T22:09:24.420Z,4.29
2022-12-01T22:11:54.860Z,4.60
2022-12-01T22:14:28.701Z,4.41
2022-12-01T22:16:58.448Z,4.39
2022-12-01T22:19:29.360Z,4.57
2022-12-01T22:22:15.646Z,4.58
2022-12-01T22:24:44.577Z,4.49
2022-12-01T22:27:30.490Z,4.60
2022-12-01T22:30:02.391Z,4.43
2022-12-01T22:32:35.051Z,4.49
2022-12-01T22:35:19.619Z,4.68
2022-12-01T22:37:49.571Z,4.46
2022-12-01T22:40:32.868Z,4.53
2022-12-01T22:43:13.824Z,4.32
2022-12-01T22:45:43.555Z,4.70
2022-12-01T22:48:27.464Z,4.64
2022-12-01T22:50:55.613Z,4.75
2022-12-01T22:53:29.279Z,4.68
2022-12-01T22:56:01.163Z,4.46
2022-12-01T22:58:31.672Z,4.32
2022-12-01T23:01:03.626Z,4.57
2022-12-01T23:03:32.392Z,4.54
2022-12-01T23:06:00.124Z,4.42
2022-12-01T23:08:27.869Z,4.56
2022-12-01T23:10:55.738Z,4.96
2022-12-01T23:13:25.095Z,4.59
2022-12-01T23:15:54.457Z,4.81
2022-12-01T23:18:25.153Z,4.43
2022-12-01T23:20:54.532Z,4.51
2022-12-01T23:23:27.349Z,4.48
2022-12-01T23:25:55.715Z,4.57
2022-12-01T23:28:23.685Z,4.37
2022-12-01T23:30:55.708Z,4.51
2022-12-01T23:33:26.017Z,4.64
2022-12-01T23:35:56.999Z,4.57
2022-12-01T23:38:27.348Z,4.61
2022-12-01T23:40:58.323Z,4.63
2022-12-01T23:43:29.232Z,4.55
2022-12-01T23:46:04.064Z,4.48
2022-12-01T23:48:37.057Z,4.83
2022-12-01T23:51:05.938Z,4.66
2022-12-01T23:53:34.133Z,4.60
2022-12-01T23:56:06.583Z,4.43
2022-12-01T23:58:35.145Z,4.55
